Oklahoma City / Page Muni, OK

1:56 AM CST on December 13, 2017 (GMT -0600)
Oklahoma City / Page Muni

Weather History for KRCE - March, 2014

Change the Weather History Date:

Sunday, March 16, 2014

  Actual Average (KPWA) Record (KPWA)
Temperature  
Mean Temperature 42 °F -  
Max Temperature 51 °F 55 °F 79 °F (2015)
Min Temperature 32 °F 38 °F 26 °F (1960)
Degree Days  
Heating Degree Days 23    
Moisture  
Dew Point 32 °F    
Average Humidity 76    
Maximum Humidity 100    
Minimum Humidity 43    
Precipitation  
Precipitation 0.67 in - - ()
Sea Level Pressure  
Sea Level Pressure 30.07 in    
Wind  
Wind Speed 22 mph (North)    
Max Wind Speed 36 mph    
Max Gust Speed 46 mph    
Visibility 9 miles    
Events Rain    
Averages and records for this station are not official NWS values.
T = Trace of Precipitation, MM = Missing Value Source: NWS Daily Summary

Daily Weather History Graph

Daily Weather History Graph

Search for Another Location

Airport or City:

Trip Planner

Search our weather history database for the weather conditions in past years. The results will help you decide how hot, cold, wet, or windy it might be!

Date:

Astronomy

Mar. 16, 2014 Rise Set
Actual Time 7:40 AM CDT 7:39 PM CDT
Civil Twilight 7:15 AM CDT 8:05 PM CDT
Nautical Twilight 6:45 AM CDT 8:34 PM CDT
Astronomical Twilight 6:15 AM CDT 9:04 PM CDT
Moon 7:56 PM CDT (3/16) 7:25 AM CDT (3/16)
Length of Visible Light 12h 49m
Length of Day
11h 59m
Full, 100% of the Moon is Illuminated
Mar 16
Full
Mar 16
Full
Mar 23
Last Quarter
Mar 30
New
Apr 7
First Quarter

Hourly Weather History & Observations

Time (CDT) Temp. Windchill Dew Point Humidity Pressure Visibility Wind Dir Wind Speed Gust Speed Precip Events Conditions
12:15 AM 51.8 °F - 51.8 °F 100% 29.86 in 1.2 mi NE 17.3 mph 32.2 mph 0.22 in Rain Heavy Rain
12:35 AM 50.0 °F - 50.0 °F 100% 29.88 in 4.0 mi NE 9.2 mph - 0.34 in Rain Rain
12:55 AM 50.0 °F - 50.0 °F 100% 29.89 in 3.0 mi North 15.0 mph - 0.44 in Rain Rain
1:15 AM 50.0 °F - 50.0 °F 100% 29.89 in 3.0 mi North 12.7 mph - 0.04 in Rain Rain
1:35 AM 50.0 °F - 50.0 °F 100% 29.89 in 4.0 mi North 15.0 mph - 0.09 in Rain Rain
1:55 AM 50.0 °F - 50.0 °F 100% 29.89 in 3.0 mi North 17.3 mph 20.7 mph 0.14 in Rain Rain
2:15 AM 44.6 °F 35.3 °F 44.6 °F 100% 29.91 in 3.0 mi NNW 26.5 mph 35.7 mph 0.04 in Rain Rain
2:35 AM 44.6 °F 36.1 °F 44.6 °F 100% 29.92 in 4.0 mi North 21.9 mph 33.4 mph 0.09 in   Scattered Clouds
2:55 AM 44.6 °F 35.7 °F 39.2 °F 81% 29.93 in 9.0 mi North 24.2 mph 32.2 mph 0.09 in Rain Light Rain
3:15 AM 42.8 °F 33.1 °F 39.2 °F 87% 29.93 in 9.0 mi North 25.3 mph 31.1 mph N/A Rain Light Rain
3:35 AM 41.0 °F 29.7 °F 37.4 °F 87% 29.94 in 10.0 mi North 31.1 mph 41.4 mph N/A   Overcast
3:55 AM 41.0 °F 31.1 °F 35.6 °F 81% 29.94 in 10.0 mi North 23.0 mph 41.4 mph N/A   Overcast
4:15 AM 39.2 °F 28.3 °F 33.8 °F 81% 29.95 in 10.0 mi North 25.3 mph 35.7 mph N/A   Overcast
4:35 AM 39.2 °F 28.0 °F 32.0 °F 75% 29.96 in 10.0 mi North 26.5 mph 40.3 mph N/A   Overcast
4:55 AM 37.4 °F 25.6 °F 32.0 °F 81% 29.98 in 10.0 mi North 26.5 mph 36.8 mph N/A   Overcast
5:15 AM 37.4 °F 26.1 °F 32.0 °F 81% 29.98 in 10.0 mi North 24.2 mph 34.5 mph N/A   Overcast
5:35 AM 37.4 °F 24.8 °F 32.0 °F 81% 29.99 in 10.0 mi North 31.1 mph 41.4 mph N/A   Overcast
5:55 AM 37.4 °F 26.6 °F 32.0 °F 81% 29.99 in 10.0 mi North 21.9 mph 38.0 mph N/A   Mostly Cloudy
6:15 AM 35.6 °F 23.4 °F 32.0 °F 87% 30.00 in 10.0 mi North 25.3 mph 40.3 mph N/A   Overcast
6:35 AM 35.6 °F 22.5 °F 32.0 °F 87% 30.00 in 10.0 mi North 29.9 mph 41.4 mph N/A   Mostly Cloudy
6:55 AM 35.6 °F 23.7 °F 32.0 °F 87% 30.02 in 5.0 mi North 24.2 mph 34.5 mph N/A Rain Light Rain
7:15 AM 35.6 °F 23.2 °F 32.0 °F 87% 30.03 in 7.0 mi North 26.5 mph 34.5 mph N/A Rain Light Rain
7:35 AM 33.8 °F 19.6 °F 32.0 °F 93% 30.04 in 5.0 mi North 32.2 mph 40.3 mph N/A   Partly Cloudy
7:55 AM 33.8 °F 20.5 °F 32.0 °F 93% 30.05 in 5.0 mi North 27.6 mph 34.5 mph N/A Rain Light Rain
8:15 AM 35.6 °F 23.4 °F 32.0 °F 87% 30.06 in 10.0 mi North 25.3 mph 39.1 mph N/A   Partly Cloudy
8:35 AM 35.6 °F 23.7 °F 32.0 °F 87% 30.07 in 10.0 mi North 24.2 mph 36.8 mph N/A   Mostly Cloudy
8:55 AM 35.6 °F 21.9 °F 32.0 °F 87% 30.09 in 10.0 mi North 33.4 mph 41.4 mph N/A   Overcast
9:15 AM 35.6 °F 22.3 °F 32.0 °F 87% 30.10 in 10.0 mi North 31.1 mph 44.9 mph N/A   Overcast
9:35 AM 35.6 °F 23.0 °F 32.0 °F 87% 30.11 in 10.0 mi North 27.6 mph 42.6 mph N/A   Overcast
9:55 AM 33.8 °F 20.3 °F 30.2 °F 87% 30.12 in 10.0 mi North 28.8 mph 46.0 mph N/A   Overcast
10:15 AM 33.8 °F 20.1 °F 32.0 °F 93% 30.13 in 10.0 mi North 29.9 mph 41.4 mph N/A   Overcast
10:35 AM 35.6 °F 23.0 °F 30.2 °F 81% 30.14 in 10.0 mi North 27.6 mph 42.6 mph N/A   Overcast
10:55 AM 35.6 °F 22.3 °F 30.2 °F 81% 30.16 in 10.0 mi North 31.1 mph 40.3 mph N/A   Overcast
11:15 AM 35.6 °F 22.1 °F 30.2 °F 81% 30.16 in 10.0 mi North 32.2 mph 44.9 mph N/A   Overcast
11:35 AM 35.6 °F 21.9 °F 30.2 °F 81% 30.15 in 10.0 mi North 33.4 mph 40.3 mph N/A   Overcast
11:55 AM 35.6 °F 22.1 °F 30.2 °F 81% 30.17 in 10.0 mi North 32.2 mph 41.4 mph N/A   Overcast
12:15 PM 33.8 °F 20.1 °F 30.2 °F 87% 30.17 in 10.0 mi North 29.9 mph 41.4 mph N/A   Overcast
12:35 PM 33.8 °F 19.0 °F 28.4 °F 81% 30.17 in 10.0 mi North 35.7 mph 41.4 mph N/A   Overcast
12:55 PM 35.6 °F 22.3 °F 30.2 °F 81% 30.17 in 10.0 mi North 31.1 mph 38.0 mph N/A   Overcast
1:15 PM 35.6 °F 21.9 °F 30.2 °F 81% 30.15 in 10.0 mi North 33.4 mph 41.4 mph N/A   Overcast
1:35 PM 35.6 °F 23.2 °F 28.4 °F 75% 30.16 in 10.0 mi North 26.5 mph 36.8 mph N/A   Overcast
1:55 PM 37.4 °F 25.4 °F 32.0 °F 81% 30.15 in 10.0 mi North 27.6 mph 34.5 mph N/A   Overcast
2:15 PM 37.4 °F 25.4 °F 30.2 °F 75% 30.14 in 10.0 mi North 27.6 mph 34.5 mph N/A   Overcast
2:35 PM 39.2 °F 28.3 °F 32.0 °F 75% 30.13 in 10.0 mi North 25.3 mph 35.7 mph N/A   Mostly Cloudy
2:55 PM 39.2 °F 27.8 °F 32.0 °F 75% 30.12 in 10.0 mi North 27.6 mph 39.1 mph N/A   Overcast
3:15 PM 39.2 °F 27.8 °F 32.0 °F 75% 30.11 in 10.0 mi North 27.6 mph 33.4 mph N/A   Overcast
3:35 PM 39.2 °F 29.0 °F 32.0 °F 75% 30.12 in 10.0 mi North 21.9 mph 32.2 mph N/A   Overcast
3:55 PM 41.0 °F 31.1 °F 32.0 °F 70% 30.12 in 10.0 mi North 23.0 mph 36.8 mph N/A   Overcast
4:15 PM 41.0 °F 30.2 °F 30.2 °F 65% 30.11 in 10.0 mi NNE 27.6 mph 34.5 mph N/A   Overcast
4:35 PM 42.8 °F 33.8 °F 28.4 °F 57% 30.11 in 10.0 mi NNE 21.9 mph 31.1 mph N/A   Overcast
4:55 PM 44.6 °F 35.7 °F 28.4 °F 53% 30.11 in 10.0 mi NNE 24.2 mph 31.1 mph N/A   Overcast
5:15 PM 44.6 °F 35.3 °F 26.6 °F 49% 30.10 in 10.0 mi North 26.5 mph 31.1 mph N/A   Mostly Cloudy
5:35 PM 44.6 °F 35.3 °F 24.8 °F 46% 30.10 in 10.0 mi North 26.5 mph 33.4 mph N/A   Partly Cloudy
5:55 PM 44.6 °F 35.9 °F 24.8 °F 46% 30.10 in 10.0 mi North 23.0 mph 31.1 mph N/A   Clear
6:15 PM 44.6 °F 35.7 °F 23.0 °F 43% 30.11 in 10.0 mi North 24.2 mph 31.1 mph N/A   Clear
6:35 PM 44.6 °F 36.4 °F 23.0 °F 43% 30.11 in 10.0 mi North 20.7 mph 25.3 mph N/A   Clear
6:55 PM 44.6 °F 37.2 °F 24.8 °F 46% 30.11 in 10.0 mi North 17.3 mph 31.1 mph N/A   Clear
7:15 PM 41.0 °F 32.5 °F 24.8 °F 53% 30.11 in 10.0 mi North 17.3 mph 25.3 mph N/A   Clear
7:35 PM 41.0 °F 33.5 °F 24.8 °F 53% 30.12 in 10.0 mi North 13.8 mph 19.6 mph N/A   Clear
7:55 PM 39.2 °F 31.6 °F 24.8 °F 56% 30.12 in 10.0 mi North 12.7 mph - N/A   Clear
8:15 PM 39.2 °F 32.5 °F 26.6 °F 61% 30.12 in 10.0 mi North 10.4 mph - N/A   Clear
8:35 PM 37.4 °F 29.8 °F 26.6 °F 65% 30.11 in 10.0 mi North 11.5 mph - N/A   Clear
8:55 PM 37.4 °F 29.8 °F 26.6 °F 65% 30.11 in 10.0 mi North 11.5 mph - N/A   Clear
9:15 PM 37.4 °F 30.3 °F 24.8 °F 60% 30.12 in 10.0 mi North 10.4 mph - N/A   Clear
9:35 PM 35.6 °F 28.0 °F 24.8 °F 65% 30.11 in 10.0 mi North 10.4 mph - N/A   Clear
9:55 PM 33.8 °F 27.0 °F 24.8 °F 70% 30.12 in 10.0 mi North 8.1 mph - N/A   Clear
10:15 PM 33.8 °F 26.4 °F 24.8 °F 70% 30.13 in 10.0 mi North 9.2 mph - N/A   Clear
10:35 PM 35.6 °F 28.6 °F 24.8 °F 65% 30.14 in 10.0 mi North 9.2 mph - N/A   Clear
10:55 PM 35.6 °F 29.2 °F 24.8 °F 65% 30.13 in 10.0 mi North 8.1 mph - N/A   Clear
11:15 PM 33.8 °F 27.0 °F 24.8 °F 70% 30.12 in 10.0 mi NNE 8.1 mph - N/A   Clear
11:35 PM 33.8 °F 27.0 °F 23.0 °F 65% 30.12 in 10.0 mi NNE 8.1 mph - N/A   Clear
11:55 PM 32.0 °F 25.6 °F 23.0 °F 69% 30.12 in 10.0 mi NE 6.9 mph - N/A   Clear